sensor_id;sensor_type;location;lat;lon;timestamp;pressure;altitude;pressure_sealevel;temperature;humidity
57574;BME280;43409;48.858;21.906;2022-09-20T00:01:09;98381.44;;;20.10;47.35
57574;BME280;43409;48.858;21.906;2022-09-20T00:03:36;98372.06;;;20.07;47.00
57574;BME280;43409;48.858;21.906;2022-09-20T00:06:03;98372.06;;;20.07;47.25
57574;BME280;43409;48.858;21.906;2022-09-20T00:08:29;98375.28;;;20.09;47.41
57574;BME280;43409;48.858;21.906;2022-09-20T00:11:03;98373.69;;;20.08;47.36
57574;BME280;43409;48.858;21.906;2022-09-20T00:13:31;98376.34;;;20.08;47.69
57574;BME280;43409;48.858;21.906;2022-09-20T00:15:57;98379.00;;;20.08;47.30
57574;BME280;43409;48.858;21.906;2022-09-20T00:18:23;98389.66;;;20.08;47.35
57574;BME280;43409;48.858;21.906;2022-09-20T00:20:49;98388.03;;;20.07;47.22
57574;BME280;43409;48.858;21.906;2022-09-20T00:23:15;98387.25;;;20.07;47.09
57574;BME280;43409;48.858;21.906;2022-09-20T00:25:41;98386.41;;;20.06;47.49
57574;BME280;43409;48.858;21.906;2022-09-20T00:28:08;98382.72;;;20.07;47.28
57574;BME280;43409;48.858;21.906;2022-09-20T00:30:34;98379.75;;;20.03;47.17
57574;BME280;43409;48.858;21.906;2022-09-20T00:33:00;98378.44;;;20.06;47.17
57574;BME280;43409;48.858;21.906;2022-09-20T00:35:26;98382.16;;;20.05;47.34
57574;BME280;43409;48.858;21.906;2022-09-20T00:37:52;98387.50;;;20.05;47.33
57574;BME280;43409;48.858;21.906;2022-09-20T00:40:19;98387.50;;;20.05;47.50
57574;BME280;43409;48.858;21.906;2022-09-20T00:42:46;98380.56;;;20.04;47.06
57574;BME280;43409;48.858;21.906;2022-09-20T00:45:23;98383.22;;;20.04;47.34
57574;BME280;43409;48.858;21.906;2022-09-20T00:48:13;98383.22;;;20.04;47.31
57574;BME280;43409;48.858;21.906;2022-09-20T00:50:54;98383.22;;;20.04;47.52
57574;BME280;43409;48.858;21.906;2022-09-20T00:53:27;98366.69;;;20.02;47.36
57574;BME280;43409;48.858;21.906;2022-09-20T00:55:57;98372.81;;;20.02;47.08
57574;BME280;43409;48.858;21.906;2022-09-20T00:58:26;98364.81;;;20.02;47.25
57574;BME280;43409;48.858;21.906;2022-09-20T01:00:54;98368.78;;;20.00;47.29
57574;BME280;43409;48.858;21.906;2022-09-20T01:03:24;98359.19;;;19.99;47.10
57574;BME280;43409;48.858;21.906;2022-09-20T01:05:52;98363.22;;;20.01;47.11
57574;BME280;43409;48.858;21.906;2022-09-20T01:08:19;98358.72;;;20.02;47.32
57574;BME280;43409;48.858;21.906;2022-09-20T01:10:48;98357.09;;;20.01;47.15
57574;BME280;43409;48.858;21.906;2022-09-20T01:13:14;98361.63;;;20.00;47.16
57574;BME280;43409;48.858;21.906;2022-09-20T01:15:41;98364.28;;;20.00;47.12
57574;BME280;43409;48.858;21.906;2022-09-20T01:18:08;98354.91;;;19.98;47.08
57574;BME280;43409;48.858;21.906;2022-09-20T01:20:36;98357.09;;;20.01;47.15
57574;BME280;43409;48.858;21.906;2022-09-20T01:23:11;98356.28;;;20.00;46.98
57574;BME280;43409;48.858;21.906;2022-09-20T01:28:23;98359.19;;;19.99;46.99
57574;BME280;43409;48.858;21.906;2022-09-20T01:31:07;98349.34;;;19.99;47.09
57574;BME280;43409;48.858;21.906;2022-09-20T01:36:08;98353.88;;;19.99;47.15
57574;BME280;43409;48.858;21.906;2022-09-20T01:39:27;98352.25;;;19.98;47.15
57574;BME280;43409;48.858;21.906;2022-09-20T01:41:57;98352.25;;;19.98;47.09
57574;BME280;43409;48.858;21.906;2022-09-20T02:06:19;98357.03;;;19.96;46.94
57574;BME280;43409;48.858;21.906;2022-09-20T02:12:04;98357.28;;;19.94;47.05
57574;BME280;43409;48.858;21.906;2022-09-20T02:14:59;98360.75;;;19.95;46.88
57574;BME280;43409;48.858;21.906;2022-09-20T02:17:36;98352.69;;;19.90;47.06
57574;BME280;43409;48.858;21.906;2022-09-20T02:25:56;98346.31;;;19.91;47.00
57574;BME280;43409;48.858;21.906;2022-09-20T02:28:47;98353.50;;;19.90;46.77
57574;BME280;43409;48.858;21.906;2022-09-20T02:35:01;98356.94;;;19.91;47.17
57574;BME280;43409;48.858;21.906;2022-09-20T02:37:48;98361.22;;;19.92;47.39
57574;BME280;43409;48.858;21.906;2022-09-20T02:40:33;98354.53;;;19.89;46.99
57574;BME280;43409;48.858;21.906;2022-09-20T02:43:10;98360.44;;;19.91;46.91
57574;BME280;43409;48.858;21.906;2022-09-20T02:45:56;98358.03;;;19.90;46.90
57574;BME280;43409;48.858;21.906;2022-09-20T02:48:28;98348.97;;;19.91;47.06
57574;BME280;43409;48.858;21.906;2022-09-20T02:51:07;98351.63;;;19.91;46.85
57574;BME280;43409;48.858;21.906;2022-09-20T02:59:28;98354.53;;;19.89;46.98
57574;BME280;43409;48.858;21.906;2022-09-20T03:04:40;98348.41;;;19.89;46.92
57574;BME280;43409;48.858;21.906;2022-09-20T03:07:33;98352.94;;;19.88;47.07
57574;BME280;43409;48.858;21.906;2022-09-20T03:18:53;98358.28;;;19.88;46.89
57574;BME280;43409;48.858;21.906;2022-09-20T03:27:12;98356.09;;;19.85;46.89
57574;BME280;43409;48.858;21.906;2022-09-20T03:38:10;98365.91;;;19.84;46.74
57574;BME280;43409;48.858;21.906;2022-09-20T03:48:48;98361.66;;;19.83;46.89
57574;BME280;43409;48.858;21.906;2022-09-20T03:54:18;98360.84;;;19.83;46.64
57574;BME280;43409;48.858;21.906;2022-09-20T03:59:57;98369.91;;;19.82;46.95
57574;BME280;43409;48.858;21.906;2022-09-20T04:05:20;98359.25;;;19.82;46.82
57574;BME280;43409;48.858;21.906;2022-09-20T04:09:00;98362.16;;;19.80;46.81
57574;BME280;43409;48.858;21.906;2022-09-20T04:11:11;98368.78;;;19.78;46.78
57574;BME280;43409;48.858;21.906;2022-09-20T04:13:51;98374.09;;;19.78;46.83
57574;BME280;43409;48.858;21.906;2022-09-20T04:22:07;98371.19;;;19.79;46.84
57574;BME280;43409;48.858;21.906;2022-09-20T04:27:28;98383.94;;;19.77;46.75
57574;BME280;43409;48.858;21.906;2022-09-20T04:30:03;98386.34;;;19.79;46.78
57574;BME280;43409;48.858;21.906;2022-09-20T04:32:39;98398.59;;;19.80;46.81
57574;BME280;43409;48.858;21.906;2022-09-20T04:38:19;98403.34;;;19.78;46.93
57574;BME280;43409;48.858;21.906;2022-09-20T04:43:42;98402.31;;;19.79;46.73
57574;BME280;43409;48.858;21.906;2022-09-20T04:54:58;98411.56;;;19.76;46.59
57574;BME280;43409;48.858;21.906;2022-09-20T05:12:08;98422.19;;;19.76;46.67
57574;BME280;43409;48.858;21.906;2022-09-20T05:20:44;98406.91;;;19.83;46.72
57574;BME280;43409;48.858;21.906;2022-09-20T05:29:24;98426.00;;;19.97;46.46
57574;BME280;43409;48.858;21.906;2022-09-20T05:35:03;98422.59;;;20.02;46.51
57574;BME280;43409;48.858;21.906;2022-09-20T05:37:39;98433.78;;;20.04;46.56
57574;BME280;43409;48.858;21.906;2022-09-20T05:40:17;98431.66;;;20.06;46.66
57574;BME280;43409;48.858;21.906;2022-09-20T05:43:07;98426.09;;;20.08;46.66
57574;BME280;43409;48.858;21.906;2022-09-20T05:48:28;98429.34;;;20.10;47.08
57574;BME280;43409;48.858;21.906;2022-09-20T05:53:59;98432.06;;;20.15;47.18
57574;BME280;43409;48.858;21.906;2022-09-20T05:57:19;98436.84;;;20.13;47.46
57574;BME280;43409;48.858;21.906;2022-09-20T05:59:55;98438.75;;;20.17;47.72
57574;BME280;43409;48.858;21.906;2022-09-20T06:02:33;98432.84;;;20.15;47.53
57574;BME280;43409;48.858;21.906;2022-09-20T06:05:15;98447.03;;;20.21;47.12
57574;BME280;43409;48.858;21.906;2022-09-20T06:13:28;98448.91;;;20.20;47.64
57574;BME280;43409;48.858;21.906;2022-09-20T06:16:00;98447.59;;;20.23;47.15
57574;BME280;43409;48.858;21.906;2022-09-20T06:18:35;98451.56;;;20.20;47.95
57574;BME280;43409;48.858;21.906;2022-09-20T06:21:21;98456.41;;;20.24;47.51
57574;BME280;43409;48.858;21.906;2022-09-20T06:23:49;98429.34;;;20.10;47.09
57574;BME280;43409;48.858;21.906;2022-09-20T06:26:19;98460.16;;;20.28;47.79
57574;BME280;43409;48.858;21.906;2022-09-20T06:28:58;98454.34;;;20.31;47.85
57574;BME280;43409;48.858;21.906;2022-09-20T06:31:25;98451.44;;;20.32;47.83
57574;BME280;43409;48.858;21.906;2022-09-20T06:33:55;98452.81;;;20.35;48.06
57574;BME280;43409;48.858;21.906;2022-09-20T06:36:28;98452.81;;;20.35;48.12
57574;BME280;43409;48.858;21.906;2022-09-20T06:42:47;98454.44;;;20.36;48.20
57574;BME280;43409;48.858;21.906;2022-09-20T06:45:12;98451.19;;;20.34;48.69
57574;BME280;43409;48.858;21.906;2022-09-20T06:47:38;98457.66;;;20.38;48.60
57574;BME280;43409;48.858;21.906;2022-09-20T06:50:05;98452.81;;;20.35;48.85
57574;BME280;43409;48.858;21.906;2022-09-20T06:52:30;98446.69;;;20.34;48.94
57574;BME280;43409;48.858;21.906;2022-09-20T06:54:55;98461.50;;;20.47;48.81
57574;BME280;43409;48.858;21.906;2022-09-20T06:57:26;98458.53;;;20.44;48.86
57574;BME280;43409;48.858;21.906;2022-09-20T06:59:55;98464.34;;;20.41;49.13
57574;BME280;43409;48.858;21.906;2022-09-20T07:02:20;98450.19;;;20.40;49.16
57574;BME280;43409;48.858;21.906;2022-09-20T07:04:46;98459.31;;;20.44;49.02
57574;BME280;43409;48.858;21.906;2022-09-20T07:07:15;98464.09;;;20.42;49.75
57574;BME280;43409;48.858;21.906;2022-09-20T07:09:41;98462.53;;;20.46;49.33
57574;BME280;43409;48.858;21.906;2022-09-20T07:12:06;98464.94;;;20.48;49.36
57574;BME280;43409;48.858;21.906;2022-09-20T07:14:34;98464.44;;;20.51;49.33
57574;BME280;43409;48.858;21.906;2022-09-20T07:17:00;98472.69;;;20.49;49.61
57574;BME280;43409;48.858;21.906;2022-09-20T07:19:25;98460.06;;;20.39;49.69
57574;BME280;43409;48.858;21.906;2022-09-20T07:21:50;98466.03;;;20.47;49.47
57574;BME280;43409;48.858;21.906;2022-09-20T07:24:16;98477.78;;;20.51;49.79
57574;BME280;43409;48.858;21.906;2022-09-20T07:26:56;98472.44;;;20.51;49.51
57574;BME280;43409;48.858;21.906;2022-09-20T07:29:21;98475.25;;;20.61;49.50
57574;BME280;43409;48.858;21.906;2022-09-20T07:31:47;98473.88;;;20.58;49.78
57574;BME280;43409;48.858;21.906;2022-09-20T07:34:14;98477.59;;;20.57;49.74
57574;BME280;43409;48.858;21.906;2022-09-20T07:36:41;98475.97;;;20.56;49.65
57574;BME280;43409;48.858;21.906;2022-09-20T07:39:07;98486.09;;;20.77;50.04
57574;BME280;43409;48.858;21.906;2022-09-20T07:41:32;98484.81;;;20.79;49.53
57574;BME280;43409;48.858;21.906;2022-09-20T07:43:58;98479.97;;;20.76;49.53
57574;BME280;43409;48.858;21.906;2022-09-20T07:46:43;98477.22;;;20.71;49.75
57574;BME280;43409;48.858;21.906;2022-09-20T07:49:10;98475.66;;;20.70;49.76
57574;BME280;43409;48.858;21.906;2022-09-20T07:51:35;98482.06;;;20.74;49.81
57574;BME280;43409;48.858;21.906;2022-09-20T07:54:00;98468.69;;;20.69;49.78
57574;BME280;43409;48.858;21.906;2022-09-20T07:56:26;98485.34;;;20.81;49.92
57574;BME280;43409;48.858;21.906;2022-09-20T07:58:51;98490.97;;;20.85;50.28
57574;BME280;43409;48.858;21.906;2022-09-20T08:01:17;98491.41;;;20.99;49.84
57574;BME280;43409;48.858;21.906;2022-09-20T08:03:44;98495.88;;;20.93;49.47
57574;BME280;43409;48.858;21.906;2022-09-20T08:06:11;98490.31;;;20.95;50.07
57574;BME280;43409;48.858;21.906;2022-09-20T08:08:40;98491.91;;;20.96;49.98
57574;BME280;43409;48.858;21.906;2022-09-20T08:11:12;98493.25;;;20.98;49.44
57574;BME280;43409;48.858;21.906;2022-09-20T08:13:40;98487.69;;;21.00;49.61
57574;BME280;43409;48.858;21.906;2022-09-20T08:16:08;98479.69;;;21.00;49.94
57574;BME280;43409;48.858;21.906;2022-09-20T08:18:35;98479.69;;;21.00;50.10
57574;BME280;43409;48.858;21.906;2022-09-20T08:21:08;98487.69;;;21.00;49.61
57574;BME280;43409;48.858;21.906;2022-09-20T08:23:39;98488.22;;;21.02;50.22
57574;BME280;43409;48.858;21.906;2022-09-20T08:26:06;98480.19;;;20.97;49.96
57574;BME280;43409;48.858;21.906;2022-09-20T08:28:32;98479.41;;;20.96;49.91
57574;BME280;43409;48.858;21.906;2022-09-20T08:31:02;98475.34;;;20.93;49.88
57574;BME280;43409;48.858;21.906;2022-09-20T08:33:27;98483.59;;;20.92;49.90
57574;BME280;43409;48.858;21.906;2022-09-20T08:35:53;98477.84;;;20.78;50.46
57574;BME280;43409;48.858;21.906;2022-09-20T08:38:19;98477.91;;;20.83;50.03
57574;BME280;43409;48.858;21.906;2022-09-20T08:40:45;98474.69;;;20.81;50.23
57574;BME280;43409;48.858;21.906;2022-09-20T08:43:11;98485.09;;;20.83;50.14
57574;BME280;43409;48.858;21.906;2022-09-20T08:45:38;98478.41;;;20.80;50.20
57574;BME280;43409;48.858;21.906;2022-09-20T08:48:09;98478.66;;;20.79;50.36
57574;BME280;43409;48.858;21.906;2022-09-20T08:50:37;98479.47;;;20.79;50.24
57574;BME280;43409;48.858;21.906;2022-09-20T08:53:02;98467.19;;;20.78;50.50
57574;BME280;43409;48.858;21.906;2022-09-20T08:55:29;98476.00;;;20.79;50.40
57574;BME280;43409;48.858;21.906;2022-09-20T08:57:58;98480.56;;;20.83;50.42
57574;BME280;43409;48.858;21.906;2022-09-20T09:00:28;98480.06;;;20.86;50.08
57574;BME280;43409;48.858;21.906;2022-09-20T09:02:56;98477.66;;;20.85;50.25
57574;BME280;43409;48.858;21.906;2022-09-20T09:07:56;98484.97;;;20.95;50.18
57574;BME280;43409;48.858;21.906;2022-09-20T09:10:25;98480.69;;;20.93;50.28
57574;BME280;43409;48.858;21.906;2022-09-20T09:12:52;98483.31;;;20.88;50.34
57574;BME280;43409;48.858;21.906;2022-09-20T09:15:26;98496.63;;;20.88;50.36
57574;BME280;43409;48.858;21.906;2022-09-20T09:17:54;98477.91;;;20.83;50.44
57574;BME280;43409;48.858;21.906;2022-09-20T09:20:21;98479.72;;;20.78;50.50
57574;BME280;43409;48.858;21.906;2022-09-20T09:22:57;98483.69;;;20.75;50.66
57574;BME280;43409;48.858;21.906;2022-09-20T09:25:30;98482.31;;;20.72;50.66
57574;BME280;43409;48.858;21.906;2022-09-20T09:30:52;98469.81;;;20.73;50.64
57574;BME280;43409;48.858;21.906;2022-09-20T09:33:29;98480.72;;;20.71;50.67
57574;BME280;43409;48.858;21.906;2022-09-20T09:35:57;98480.97;;;20.70;50.66
57574;BME280;43409;48.858;21.906;2022-09-20T09:38:29;98481.22;;;20.68;50.65
57574;BME280;43409;48.858;21.906;2022-09-20T09:41:00;98488.72;;;20.71;50.53
57574;BME280;43409;48.858;21.906;2022-09-20T09:43:34;98501.78;;;20.73;50.21
57574;BME280;43409;48.858;21.906;2022-09-20T09:46:22;98498.50;;;20.66;50.66
57574;BME280;43409;48.858;21.906;2022-09-20T09:49:08;98498.97;;;20.63;50.63
57574;BME280;43409;48.858;21.906;2022-09-20T09:51:34;98482.94;;;20.57;50.83
57574;BME280;43409;48.858;21.906;2022-09-20T09:54:02;98484.22;;;20.55;50.88
57574;BME280;43409;48.858;21.906;2022-09-20T09:56:44;98492.25;;;20.60;51.01
57574;BME280;43409;48.858;21.906;2022-09-20T09:59:26;98485.88;;;20.61;51.09
57574;BME280;43409;48.858;21.906;2022-09-20T10:04:35;98484.84;;;20.62;51.11
57574;BME280;43409;48.858;21.906;2022-09-20T10:07:15;98482.44;;;20.61;51.11
57574;BME280;43409;48.858;21.906;2022-09-20T10:12:56;98487.25;;;20.64;51.38
57574;BME280;43409;48.858;21.906;2022-09-20T10:15:38;98488.88;;;20.65;51.46
57574;BME280;43409;48.858;21.906;2022-09-20T10:32:25;98494.69;;;20.62;52.07
57574;BME280;43409;48.858;21.906;2022-09-20T10:35:14;98485.59;;;20.57;52.21
57574;BME280;43409;48.858;21.906;2022-09-20T10:37:46;98494.22;;;20.65;51.95
57574;BME280;43409;48.858;21.906;2022-09-20T10:42:48;98493.97;;;20.66;52.10
57574;BME280;43409;48.858;21.906;2022-09-20T10:48:17;98497.75;;;20.70;52.07
57574;BME280;43409;48.858;21.906;2022-09-20T10:50:53;98498.56;;;20.71;52.16
57574;BME280;43409;48.858;21.906;2022-09-20T11:10:22;98509.63;;;20.85;51.73
57574;BME280;43409;48.858;21.906;2022-09-20T11:12:58;98500.84;;;20.84;51.67
57574;BME280;43409;48.858;21.906;2022-09-20T11:15:40;98502.13;;;20.82;51.72
57574;BME280;43409;48.858;21.906;2022-09-20T11:21:09;98506.03;;;20.96;51.74
57574;BME280;43409;48.858;21.906;2022-09-20T11:23:50;98505.44;;;20.89;51.78
57574;BME280;43409;48.858;21.906;2022-09-20T11:26:36;98503.31;;;20.91;51.94
57574;BME280;43409;48.858;21.906;2022-09-20T11:31:45;98505.63;;;20.82;51.86
57574;BME280;43409;48.858;21.906;2022-09-20T11:34:36;98514.41;;;20.83;52.11
57574;BME280;43409;48.858;21.906;2022-09-20T11:37:04;98517.09;;;20.83;51.96
57574;BME280;43409;48.858;21.906;2022-09-20T11:41:57;98517.88;;;20.83;52.17
57574;BME280;43409;48.858;21.906;2022-09-20T11:44:24;98516.28;;;20.82;52.14
57574;BME280;43409;48.858;21.906;2022-09-20T11:47:15;98513.88;;;20.81;52.21
57574;BME280;43409;48.858;21.906;2022-09-20T11:58:00;98513.03;;;20.80;52.28
57574;BME280;43409;48.858;21.906;2022-09-20T12:00:31;98518.38;;;20.80;52.58
57574;BME280;43409;48.858;21.906;2022-09-20T12:02:58;98524.53;;;20.81;52.47
57574;BME280;43409;48.858;21.906;2022-09-20T12:05:39;98520.00;;;20.81;52.85
57574;BME280;43409;48.858;21.906;2022-09-20T12:10:56;98518.97;;;20.82;52.61
57574;BME280;43409;48.858;21.906;2022-09-20T12:13:25;98511.47;;;20.79;52.45
57574;BME280;43409;48.858;21.906;2022-09-20T12:16:01;98522.13;;;20.79;52.61
57574;BME280;43409;48.858;21.906;2022-09-20T12:21:12;98532.28;;;20.82;52.66
57574;BME280;43409;48.858;21.906;2022-09-20T12:32:00;98511.63;;;20.95;52.45
57574;BME280;43409;48.858;21.906;2022-09-20T12:39:32;98502.63;;;21.01;52.46
57574;BME280;43409;48.858;21.906;2022-09-20T12:42:04;98503.69;;;21.00;52.95
57574;BME280;43409;48.858;21.906;2022-09-20T12:47:19;98484.00;;;21.06;52.57
57574;BME280;43409;48.858;21.906;2022-09-20T13:01:26;98493.66;;;21.12;52.80
57574;BME280;43409;48.858;21.906;2022-09-20T13:03:41;98492.66;;;21.18;52.66
57574;BME280;43409;48.858;21.906;2022-09-20T13:08:59;98503.41;;;21.28;52.74
57574;BME280;43409;48.858;21.906;2022-09-20T13:11:42;98499.34;;;21.21;52.87
57574;BME280;43409;48.858;21.906;2022-09-20T13:14:24;98498.00;;;21.18;53.16
57574;BME280;43409;48.858;21.906;2022-09-20T13:17:12;98502.00;;;20.49;48.08
57574;BME280;43409;48.858;21.906;2022-09-20T13:19:43;98504.19;;;20.13;48.12
57574;BME280;43409;48.858;21.906;2022-09-20T13:22:25;98499.97;;;20.56;48.55
57574;BME280;43409;48.858;21.906;2022-09-20T13:24:56;98505.56;;;20.77;48.94
57574;BME280;43409;48.858;21.906;2022-09-20T13:27:33;98512.06;;;20.86;50.18
57574;BME280;43409;48.858;21.906;2022-09-20T13:32:34;98511.25;;;20.86;50.65
57574;BME280;43409;48.858;21.906;2022-09-20T13:37:54;98510.72;;;20.84;50.70
57574;BME280;43409;48.858;21.906;2022-09-20T13:40:23;98514.16;;;20.84;50.27
57574;BME280;43409;48.858;21.906;2022-09-20T13:42:51;98514.66;;;20.81;50.72
57574;BME280;43409;48.858;21.906;2022-09-20T13:45:19;98512.00;;;20.81;50.65
57574;BME280;43409;48.858;21.906;2022-09-20T13:47:50;98511.13;;;20.75;50.55
57574;BME280;43409;48.858;21.906;2022-09-20T13:52:56;98516.78;;;20.79;50.66
57574;BME280;43409;48.858;21.906;2022-09-20T13:55:36;98517.28;;;20.76;50.67
57574;BME280;43409;48.858;21.906;2022-09-20T13:58:08;98507.41;;;20.77;50.47
57574;BME280;43409;48.858;21.906;2022-09-20T14:00:45;98508.22;;;20.77;50.59
57574;BME280;43409;48.858;21.906;2022-09-20T14:03:16;98509.28;;;20.76;50.67
57574;BME280;43409;48.858;21.906;2022-09-20T14:05:47;98498.63;;;20.76;50.72
57574;BME280;43409;48.858;21.906;2022-09-20T14:08:26;98503.38;;;20.74;50.48
57574;BME280;43409;48.858;21.906;2022-09-20T14:13:39;98507.66;;;20.75;50.68
57574;BME280;43409;48.858;21.906;2022-09-20T14:16:06;98501.78;;;20.73;50.66
57574;BME280;43409;48.858;21.906;2022-09-20T14:18:34;98501.78;;;20.73;50.84
57574;BME280;43409;48.858;21.906;2022-09-20T14:21:00;98502.84;;;20.72;50.65
57574;BME280;43409;48.858;21.906;2022-09-20T14:23:28;98493.22;;;20.71;50.69
57574;BME280;43409;48.858;21.906;2022-09-20T14:26:07;98503.34;;;20.69;50.78
57574;BME280;43409;48.858;21.906;2022-09-20T14:28:44;98500.13;;;20.67;50.85
57574;BME280;43409;48.858;21.906;2022-09-20T14:33:48;98494.22;;;20.65;50.53
57574;BME280;43409;48.858;21.906;2022-09-20T14:36:20;98508.66;;;20.69;50.45
57574;BME280;43409;48.858;21.906;2022-09-20T14:38:47;98511.56;;;20.67;50.73
57574;BME280;43409;48.858;21.906;2022-09-20T14:41:24;98507.53;;;20.65;50.69
57574;BME280;43409;48.858;21.906;2022-09-20T14:43:57;98510.19;;;20.65;50.58
57574;BME280;43409;48.858;21.906;2022-09-20T14:46:29;98507.53;;;20.65;50.69
57574;BME280;43409;48.858;21.906;2022-09-20T14:51:50;98520.84;;;20.65;50.65
57574;BME280;43409;48.858;21.906;2022-09-20T14:54:28;98512.28;;;20.63;50.53
57574;BME280;43409;48.858;21.906;2022-09-20T14:56:56;98515.44;;;20.60;50.51
57574;BME280;43409;48.858;21.906;2022-09-20T14:59:27;98523.44;;;20.60;50.63
57574;BME280;43409;48.858;21.906;2022-09-20T15:02:07;98524.00;;;20.62;50.63
57574;BME280;43409;48.858;21.906;2022-09-20T15:04:35;98524.81;;;20.62;50.57
57574;BME280;43409;48.858;21.906;2022-09-20T15:07:07;98523.44;;;20.60;50.52
57574;BME280;43409;48.858;21.906;2022-09-20T15:09:34;98522.66;;;20.59;50.48
57574;BME280;43409;48.858;21.906;2022-09-20T15:12:10;98522.41;;;20.61;50.48
57574;BME280;43409;48.858;21.906;2022-09-20T15:14:36;98523.44;;;20.60;50.62
57574;BME280;43409;48.858;21.906;2022-09-20T15:17:05;98523.44;;;20.60;50.51
57574;BME280;43409;48.858;21.906;2022-09-20T15:19:30;98519.41;;;20.57;50.69
57574;BME280;43409;48.858;21.906;2022-09-20T15:21:56;98519.66;;;20.55;50.48
57574;BME280;43409;48.858;21.906;2022-09-20T15:24:21;98521.28;;;20.56;50.46
57574;BME280;43409;48.858;21.906;2022-09-20T15:26:47;98518.59;;;20.56;50.46
57574;BME280;43409;48.858;21.906;2022-09-20T15:29:14;98519.66;;;20.55;50.41
57574;BME280;43409;48.858;21.906;2022-09-20T15:31:41;98516.97;;;20.55;50.40
57574;BME280;43409;48.858;21.906;2022-09-20T15:34:06;98524.44;;;20.53;50.36
57574;BME280;43409;48.858;21.906;2022-09-20T15:36:32;98527.88;;;20.54;50.39
57574;BME280;43409;48.858;21.906;2022-09-20T15:38:58;98540.41;;;20.53;50.32
57574;BME280;43409;48.858;21.906;2022-09-20T15:41:24;98529.75;;;20.53;50.45
57574;BME280;43409;48.858;21.906;2022-09-20T15:43:49;98538.00;;;20.52;50.32
57574;BME280;43409;48.858;21.906;2022-09-20T15:46:20;98542.53;;;20.51;50.40
57574;BME280;43409;48.858;21.906;2022-09-20T15:48:46;98533.41;;;20.47;50.26
57574;BME280;43409;48.858;21.906;2022-09-20T15:51:12;98544.84;;;20.48;50.32
57574;BME280;43409;48.858;21.906;2022-09-20T15:53:47;98546.47;;;20.49;50.23
57574;BME280;43409;48.858;21.906;2022-09-20T15:56:22;98550.44;;;20.46;50.13
57574;BME280;43409;48.858;21.906;2022-09-20T15:58:50;98557.38;;;20.47;50.33
57574;BME280;43409;48.858;21.906;2022-09-20T16:01:17;98559.00;;;20.48;50.42
57574;BME280;43409;48.858;21.906;2022-09-20T16:03:44;98560.28;;;20.46;50.31
57574;BME280;43409;48.858;21.906;2022-09-20T16:06:10;98569.06;;;20.46;50.22
57574;BME280;43409;48.858;21.906;2022-09-20T16:08:39;98571.72;;;20.46;50.22
57574;BME280;43409;48.858;21.906;2022-09-20T16:11:07;98578.94;;;20.46;50.26
57574;BME280;43409;48.858;21.906;2022-09-20T16:13:33;98575.47;;;20.45;50.20
57574;BME280;43409;48.858;21.906;2022-09-20T16:16:03;98580.22;;;20.43;50.25
57574;BME280;43409;48.858;21.906;2022-09-20T16:18:29;98585.53;;;20.43;50.26
57574;BME280;43409;48.858;21.906;2022-09-20T16:21:15;98589.28;;;20.42;50.11
57574;BME280;43409;48.858;21.906;2022-09-20T16:23:46;98586.63;;;20.42;50.27
57574;BME280;43409;48.858;21.906;2022-09-20T16:26:11;98591.94;;;20.42;50.36
57574;BME280;43409;48.858;21.906;2022-09-20T16:28:40;98595.66;;;20.41;50.10
57574;BME280;43409;48.858;21.906;2022-09-20T16:34:04;98604.69;;;20.40;50.17
57574;BME280;43409;48.858;21.906;2022-09-20T16:36:30;98615.31;;;20.40;50.42
57574;BME280;43409;48.858;21.906;2022-09-20T16:38:55;98620.09;;;20.38;50.28
57574;BME280;43409;48.858;21.906;2022-09-20T16:41:25;98623.56;;;20.38;50.28
57574;BME280;43409;48.858;21.906;2022-09-20T16:43:52;98619.53;;;20.36;50.12
57574;BME280;43409;48.858;21.906;2022-09-20T16:46:18;98619.53;;;20.36;50.24
57574;BME280;43409;48.858;21.906;2022-09-20T16:48:45;98621.38;;;20.35;50.18
57574;BME280;43409;48.858;21.906;2022-09-20T16:51:12;98624.03;;;20.35;50.34
57574;BME280;43409;48.858;21.906;2022-09-20T16:53:38;98635.78;;;20.34;50.26
57574;BME280;43409;48.858;21.906;2022-09-20T16:56:03;98625.84;;;20.30;50.28
57574;BME280;43409;48.858;21.906;2022-09-20T16:58:32;98640.28;;;20.34;50.16
57574;BME280;43409;48.858;21.906;2022-09-20T17:01:06;98638.69;;;20.33;50.20
57574;BME280;43409;48.858;21.906;2022-09-20T17:03:33;98639.97;;;20.30;50.09
57574;BME280;43409;48.858;21.906;2022-09-20T17:06:03;98644.72;;;20.28;50.13
57574;BME280;43409;48.858;21.906;2022-09-20T17:08:30;98641.00;;;20.29;49.89
57574;BME280;43409;48.858;21.906;2022-09-20T17:11:04;98644.25;;;20.31;50.05
57574;BME280;43409;48.858;21.906;2022-09-20T17:13:30;98647.94;;;20.30;50.20
57574;BME280;43409;48.858;21.906;2022-09-20T17:16:05;98646.31;;;20.29;50.09
57574;BME280;43409;48.858;21.906;2022-09-20T17:18:31;98644.50;;;20.30;50.13
57574;BME280;43409;48.858;21.906;2022-09-20T17:21:03;98654.00;;;20.26;50.11
57574;BME280;43409;48.858;21.906;2022-09-20T17:23:29;98655.38;;;20.28;50.21
57574;BME280;43409;48.858;21.906;2022-09-20T17:26:18;98659.88;;;20.28;50.11
57574;BME280;43409;48.858;21.906;2022-09-20T17:28:46;98659.88;;;20.28;50.07
57574;BME280;43409;48.858;21.906;2022-09-20T17:31:14;98659.88;;;20.28;50.11
57574;BME280;43409;48.858;21.906;2022-09-20T17:33:41;98664.88;;;20.24;50.13
57574;BME280;43409;48.858;21.906;2022-09-20T17:36:08;98668.94;;;20.27;50.13
57574;BME280;43409;48.858;21.906;2022-09-20T17:38:36;98677.97;;;20.26;49.97
57574;BME280;43409;48.858;21.906;2022-09-20T17:41:05;98663.50;;;20.21;49.98
57574;BME280;43409;48.858;21.906;2022-09-20T17:43:35;98676.34;;;20.25;49.87
57574;BME280;43409;48.858;21.906;2022-09-20T17:46:25;98679.25;;;20.23;50.18
57574;BME280;43409;48.858;21.906;2022-09-20T17:48:55;98676.34;;;20.25;50.07